Time;durP1;ratioP1;P1;durP2;ratioP2;P2;SDS_P1;SDS_P2;PMS_P1;PMS_P2;Temp;Humidity;BMP_temperature;BMP_pressure;BME280_temperature;BME280_humidity;BME280_pressure;Samples;Min_cycle;Max_cycle;Signal;HPM_P1;HPM_P2
2023/05/02 00:01:39;;;;;;;6.83;5.60;;;9.10;99.90;;;;;;4989533;28;20038;-79
2023/05/02 00:04:05;;;;;;;6.40;5.60;;;9.10;99.90;;;;;;4990363;28;20034;-79
2023/05/02 00:06:31;;;;;;;6.97;5.70;;;9.10;99.90;;;;;;4990101;28;20031;-79
2023/05/02 00:08:57;;;;;;;6.73;5.87;;;9.10;99.90;;;;;;4990896;28;20034;-79
2023/05/02 00:11:23;;;;;;;6.53;5.37;;;9.10;99.90;;;;;;4990661;28;20081;-78
2023/05/02 00:13:49;;;;;;;6.67;5.87;;;9.00;99.90;;;;;;4989720;28;20116;-78
2023/05/02 00:16:14;;;;;;;7.10;5.77;;;9.00;99.90;;;;;;4990557;28;20161;-79
2023/05/02 00:18:40;;;;;;;8.87;6.00;;;9.00;99.90;;;;;;4989542;28;20521;-78
2023/05/02 00:21:06;;;;;;;6.07;5.30;;;9.00;99.90;;;;;;4989678;28;20029;-78
2023/05/02 00:23:32;;;;;;;7.67;5.50;;;9.00;99.90;;;;;;4989741;28;20175;-78
2023/05/02 00:25:57;;;;;;;8.00;5.50;;;9.00;99.90;;;;;;4990099;28;20503;-78
2023/05/02 00:28:23;;;;;;;6.47;5.13;;;8.90;99.90;;;;;;4989679;28;20104;-78
2023/05/02 00:30:48;;;;;;;7.20;5.80;;;9.00;99.90;;;;;;4989617;28;20034;-79
2023/05/02 00:33:14;;;;;;;6.10;5.00;;;8.90;99.90;;;;;;4989737;28;20149;-79
2023/05/02 00:35:40;;;;;;;5.43;4.90;;;8.90;99.90;;;;;;4990127;28;20027;-78
2023/05/02 00:38:06;;;;;;;6.00;5.40;;;8.90;99.90;;;;;;4989573;28;20050;-78
2023/05/02 00:40:45;;;;;;;6.00;4.83;;;8.90;99.90;;;;;;4990273;28;20026;-79
2023/05/02 00:43:12;;;;;;;5.70;5.00;;;8.80;99.90;;;;;;4989427;28;20026;-79
2023/05/02 00:45:42;;;;;;;7.03;5.00;;;8.80;99.90;;;;;;4990477;28;20036;-78
2023/05/02 00:48:08;;;;;;;6.10;4.60;;;8.80;99.90;;;;;;4990072;28;20034;-78
2023/05/02 00:50:39;;;;;;;5.00;4.13;;;8.70;99.90;;;;;;4989535;28;20121;-79
2023/05/02 00:53:05;;;;;;;5.57;4.90;;;8.70;99.90;;;;;;4989102;28;20026;-78
2023/05/02 00:55:32;;;;;;;5.43;4.57;;;8.70;99.90;;;;;;4989550;28;20034;-78
2023/05/02 00:57:59;;;;;;;5.37;4.87;;;8.60;99.90;;;;;;4990050;28;20046;-78
2023/05/02 01:00:43;;;;;;;5.67;4.60;;;8.60;99.90;;;;;;4989501;28;20026;-79
2023/05/02 01:03:19;;;;;;;5.73;5.13;;;8.60;99.90;;;;;;4989447;28;20053;-78
2023/05/02 01:05:59;;;;;;;6.07;5.20;;;8.50;99.90;;;;;;4993447;28;20034;-78
2023/05/02 01:08:34;;;;;;;7.20;4.83;;;8.50;99.90;;;;;;4994079;28;20085;-79
2023/05/02 01:11:14;;;;;;;5.70;4.73;;;8.50;99.90;;;;;;4988727;28;20069;-78
2023/05/02 01:13:42;;;;;;;5.77;4.93;;;8.40;99.90;;;;;;4988273;28;20140;-78
2023/05/02 01:16:10;;;;;;;6.80;5.17;;;8.40;99.90;;;;;;4989313;28;20414;-79
2023/05/02 01:18:39;;;;;;;5.90;5.00;;;8.40;99.90;;;;;;4988284;28;20136;-79
2023/05/02 01:21:10;;;;;;;4.93;4.33;;;8.40;99.90;;;;;;4987891;28;20049;-78
2023/05/02 01:23:51;;;;;;;5.70;5.00;;;8.30;99.90;;;;;;4987449;28;20496;-79
2023/05/02 01:26:42;;;;;;;6.07;5.30;;;8.30;99.90;;;;;;4987354;28;20033;-79
2023/05/02 01:29:10;;;;;;;7.50;5.00;;;8.30;99.90;;;;;;4989098;28;20089;-78
2023/05/02 01:31:41;;;;;;;5.63;4.70;;;8.30;99.90;;;;;;4988727;28;20471;-79
2023/05/02 01:34:10;;;;;;;8.13;5.17;;;8.30;99.90;;;;;;4987855;28;20046;-79
2023/05/02 01:36:42;;;;;;;5.43;4.73;;;8.20;99.90;;;;;;4987580;28;20065;-79
2023/05/02 01:39:09;;;;;;;7.07;5.10;;;8.20;99.90;;;;;;4989029;28;20046;-78
2023/05/02 01:41:36;;;;;;;5.97;5.37;;;8.20;99.90;;;;;;4988522;28;20030;-80
2023/05/02 01:44:03;;;;;;;7.03;5.27;;;8.20;99.90;;;;;;4989150;28;20038;-80
2023/05/02 01:46:38;;;;;;;5.97;5.13;;;8.20;99.90;;;;;;4989627;28;20042;-80
2023/05/02 01:49:06;;;;;;;7.87;5.50;;;8.20;99.90;;;;;;4989294;28;21361;-80
2023/05/02 01:51:34;;;;;;;6.30;5.40;;;8.10;99.90;;;;;;4989186;28;20026;-80
2023/05/02 01:54:04;;;;;;;7.93;5.07;;;8.10;99.90;;;;;;4988907;28;20039;-80
2023/05/02 01:56:34;;;;;;;5.83;4.90;;;8.10;99.90;;;;;;4989001;28;20026;-80
2023/05/02 01:59:01;;;;;;;8.10;5.00;;;8.10;99.90;;;;;;4988279;28;20155;-80
2023/05/02 02:01:29;;;;;;;5.90;5.30;;;8.10;99.90;;;;;;4986669;28;20088;-80
2023/05/02 02:03:56;;;;;;;5.80;4.90;;;8.10;99.90;;;;;;4987126;28;20093;-79
2023/05/02 02:06:22;;;;;;;7.60;5.37;;;8.00;99.90;;;;;;4988072;28;20105;-79
2023/05/02 02:08:48;;;;;;;6.83;5.23;;;8.00;99.90;;;;;;4987604;28;20031;-80
2023/05/02 02:11:20;;;;;;;8.37;5.13;;;8.00;99.90;;;;;;4987215;28;20029;-80
2023/05/02 02:13:58;;;;;;;7.13;4.93;;;8.00;99.90;;;;;;4987302;28;20034;-79
2023/05/02 02:16:27;;;;;;;7.20;5.27;;;8.00;99.90;;;;;;4985493;28;20065;-80
2023/05/02 02:18:55;;;;;;;6.10;5.50;;;8.00;99.90;;;;;;4987825;28;20133;-78
2023/05/02 02:21:22;;;;;;;7.27;6.10;;;8.00;99.90;;;;;;4988057;28;20050;-78
2023/05/02 02:23:50;;;;;;;6.27;5.47;;;8.00;99.90;;;;;;4987924;28;20034;-78
2023/05/02 02:26:19;;;;;;;5.23;4.73;;;7.90;99.90;;;;;;4988513;28;20029;-78
2023/05/02 02:28:45;;;;;;;6.77;5.30;;;7.90;99.90;;;;;;4988497;28;20038;-78
2023/05/02 02:31:11;;;;;;;6.97;5.37;;;7.90;99.90;;;;;;4988198;28;20038;-79
2023/05/02 02:33:37;;;;;;;5.87;4.77;;;7.90;99.90;;;;;;4988050;28;20072;-78
2023/05/02 02:36:12;;;;;;;5.93;5.30;;;7.90;99.90;;;;;;4988253;28;20069;-79
2023/05/02 02:38:45;;;;;;;6.00;5.40;;;7.90;99.90;;;;;;4987926;28;20049;-78
2023/05/02 02:41:34;;;;;;;7.07;5.97;;;8.00;99.90;;;;;;4987002;28;20042;-78
2023/05/02 02:44:16;;;;;;;6.83;5.43;;;7.90;99.90;;;;;;4990131;28;20112;-79
2023/05/02 02:47:40;;;;;;;7.07;5.40;;;7.90;99.90;;;;;;4992299;28;20054;-78
2023/05/02 02:50:31;;;;;;;6.33;5.57;;;7.90;99.90;;;;;;4921352;29;20509;-78
2023/05/02 02:53:04;;;;;;;6.30;5.70;;;7.90;99.90;;;;;;4921035;29;20051;-78
2023/05/02 02:55:37;;;;;;;8.27;6.10;;;7.90;99.90;;;;;;4976342;28;20039;-78
2023/05/02 02:58:17;;;;;;;6.57;5.53;;;7.90;99.90;;;;;;4987248;28;20042;-78
2023/05/02 03:00:45;;;;;;;6.97;5.50;;;7.90;99.90;;;;;;4986744;28;20037;-79
2023/05/02 03:03:13;;;;;;;6.40;5.30;;;7.80;99.90;;;;;;4987350;28;20794;-78
2023/05/02 03:05:38;;;;;;;6.93;5.10;;;7.80;99.90;;;;;;4987998;28;20039;-78
2023/05/02 03:08:04;;;;;;;7.77;5.20;;;7.80;99.90;;;;;;4987848;28;20034;-78
2023/05/02 03:10:30;;;;;;;5.77;5.03;;;7.80;99.90;;;;;;4987294;28;20125;-78
2023/05/02 03:12:55;;;;;;;9.37;5.03;;;7.80;99.90;;;;;;4987647;28;20121;-78
2023/05/02 03:16:00;;;;;;;6.07;5.13;;;7.80;99.90;;;;;;4986949;28;20678;-78
2023/05/02 03:18:26;;;;;;;6.47;5.33;;;7.70;99.90;;;;;;4986320;28;21510;-78
2023/05/02 03:20:51;;;;;;;7.60;5.70;;;7.70;99.90;;;;;;4987597;28;20033;-78
2023/05/02 03:23:17;;;;;;;6.13;5.53;;;7.70;99.90;;;;;;4987839;28;20057;-79
2023/05/02 03:25:42;;;;;;;6.10;5.43;;;7.70;99.90;;;;;;4986497;28;21101;-78
2023/05/02 03:28:09;;;;;;;6.47;4.80;;;7.70;99.90;;;;;;4988054;28;20490;-78
2023/05/02 03:30:39;;;;;;;7.03;4.90;;;7.60;99.90;;;;;;4986941;28;20155;-78
2023/05/02 03:33:07;;;;;;;6.60;5.20;;;7.60;99.90;;;;;;4987314;28;20054;-78
2023/05/02 03:35:33;;;;;;;7.70;5.27;;;7.60;99.90;;;;;;4986695;28;20486;-78
2023/05/02 03:37:58;;;;;;;7.27;4.83;;;7.50;99.90;;;;;;4987364;28;20037;-78
2023/05/02 03:40:25;;;;;;;5.77;5.10;;;7.50;99.90;;;;;;4987245;28;20034;-78
2023/05/02 03:42:51;;;;;;;8.13;5.43;;;7.50;99.90;;;;;;4987222;28;20494;-79
2023/05/02 03:45:16;;;;;;;7.93;5.70;;;7.50;99.90;;;;;;4986973;28;20086;-78
2023/05/02 03:47:42;;;;;;;6.77;5.43;;;7.50;99.90;;;;;;4987331;28;20517;-78
2023/05/02 03:50:08;;;;;;;5.60;5.00;;;7.50;99.90;;;;;;4989549;28;20116;-79
2023/05/02 03:52:33;;;;;;;5.90;5.20;;;7.40;99.90;;;;;;4991387;28;20026;-78
2023/05/02 03:55:00;;;;;;;6.50;4.90;;;7.40;99.90;;;;;;4989837;28;20121;-78
2023/05/02 03:57:29;;;;;;;6.70;4.83;;;7.40;99.90;;;;;;4991404;28;20044;-78
2023/05/02 03:59:54;;;;;;;6.80;5.20;;;7.40;99.90;;;;;;4989975;28;20042;-78
2023/05/02 04:02:20;;;;;;;7.40;5.30;;;7.40;99.90;;;;;;4989474;28;20022;-78
2023/05/02 04:04:46;;;;;;;7.47;5.83;;;7.40;99.90;;;;;;4990029;28;20065;-78
2023/05/02 04:07:18;;;;;;;6.87;6.07;;;7.40;99.90;;;;;;4991008;28;20026;-78
2023/05/02 04:09:44;;;;;;;6.43;5.77;;;7.40;99.90;;;;;;4989652;28;20438;-80
2023/05/02 04:12:09;;;;;;;6.43;5.47;;;7.40;99.90;;;;;;4989168;28;20108;-84
2023/05/02 04:14:35;;;;;;;6.67;5.23;;;7.40;99.90;;;;;;4991800;28;20029;-81
2023/05/02 04:17:00;;;;;;;7.60;5.60;;;7.40;99.90;;;;;;4988982;28;20027;-82
2023/05/02 04:19:26;;;;;;;5.77;5.17;;;7.40;99.90;;;;;;4990955;28;20547;-82
2023/05/02 04:21:51;;;;;;;7.83;5.47;;;7.40;99.90;;;;;;4994283;28;20027;-82
2023/05/02 04:24:17;;;;;;;9.10;5.90;;;7.40;99.90;;;;;;4999750;28;20073;-83
2023/05/02 04:26:43;;;;;;;6.20;4.87;;;7.50;99.90;;;;;;4990472;28;20045;-82
2023/05/02 04:29:09;;;;;;;5.93;5.20;;;7.50;99.90;;;;;;4991599;28;20030;-82
2023/05/02 04:31:34;;;;;;;5.67;4.80;;;7.50;99.90;;;;;;4991206;28;21405;-82
2023/05/02 04:34:00;;;;;;;6.10;5.33;;;7.50;99.90;;;;;;4989991;28;20041;-82
2023/05/02 04:36:27;;;;;;;7.17;5.03;;;7.60;99.90;;;;;;4989410;28;20376;-82
2023/05/02 04:38:52;;;;;;;7.73;5.10;;;7.60;99.90;;;;;;4987996;28;20050;-83
2023/05/02 04:41:18;;;;;;;5.83;5.20;;;7.60;99.90;;;;;;4990443;28;20588;-82
2023/05/02 04:43:44;;;;;;;6.03;5.43;;;7.60;99.90;;;;;;4988708;28;20061;-82
2023/05/02 04:46:10;;;;;;;5.80;4.93;;;7.70;99.90;;;;;;4988741;28;20080;-82
2023/05/02 04:48:35;;;;;;;5.23;4.73;;;7.70;99.90;;;;;;4989972;28;20080;-87
2023/05/02 04:51:01;;;;;;;6.10;5.30;;;7.80;99.90;;;;;;4985622;28;20030;-82
2023/05/02 04:53:27;;;;;;;6.43;5.27;;;7.80;99.90;;;;;;4988109;28;20080;-82
2023/05/02 04:55:53;;;;;;;5.87;5.10;;;7.90;99.90;;;;;;4983398;28;20030;-82
2023/05/02 04:58:18;;;;;;;6.47;5.27;;;8.00;99.90;;;;;;4989875;28;20046;-82
2023/05/02 05:00:44;;;;;;;5.57;4.97;;;8.00;99.90;;;;;;4990858;28;20155;-82
2023/05/02 05:03:09;;;;;;;5.83;4.53;;;8.00;99.90;;;;;;4991881;28;20506;-82
2023/05/02 05:05:35;;;;;;;5.73;4.87;;;8.10;99.90;;;;;;4991649;28;20027;-82
2023/05/02 05:08:01;;;;;;;5.80;5.03;;;8.10;99.90;;;;;;4992919;28;20707;-82
2023/05/02 05:10:26;;;;;;;5.37;4.80;;;8.20;99.90;;;;;;4991601;28;20044;-83
2023/05/02 05:12:52;;;;;;;7.60;4.53;;;8.30;99.90;;;;;;4992043;28;20368;-81
2023/05/02 05:15:21;;;;;;;5.40;4.80;;;8.40;99.90;;;;;;4990666;28;21024;-82
2023/05/02 05:17:46;;;;;;;6.77;4.47;;;8.40;99.90;;;;;;4989252;28;20056;-82
2023/05/02 05:20:12;;;;;;;6.90;5.43;;;8.50;99.90;;;;;;4988110;28;20061;-82
2023/05/02 05:22:38;;;;;;;7.17;5.40;;;8.60;99.90;;;;;;4989670;28;20688;-82
2023/05/02 05:25:04;;;;;;;5.43;4.67;;;8.60;99.90;;;;;;4989007;28;20035;-82
2023/05/02 05:27:30;;;;;;;6.60;4.93;;;8.70;99.90;;;;;;4988390;28;20041;-83
2023/05/02 05:29:55;;;;;;;6.27;4.93;;;8.80;99.90;;;;;;4988561;28;20029;-83
2023/05/02 05:32:21;;;;;;;5.83;5.20;;;8.90;99.90;;;;;;4988203;28;20027;-82
2023/05/02 05:34:51;;;;;;;5.90;4.70;;;8.90;99.90;;;;;;4988799;28;20086;-83
2023/05/02 05:37:17;;;;;;;5.80;5.20;;;9.00;99.90;;;;;;4988441;28;20029;-83
2023/05/02 05:39:43;;;;;;;7.37;5.37;;;9.00;99.90;;;;;;4991445;28;20073;-83
2023/05/02 05:42:08;;;;;;;7.23;5.20;;;9.10;99.90;;;;;;4994661;28;20081;-82
2023/05/02 05:44:35;;;;;;;8.77;5.40;;;9.20;99.90;;;;;;4988521;28;20128;-82
2023/05/02 05:47:00;;;;;;;6.73;5.57;;;9.20;99.90;;;;;;4987745;28;20108;-82
2023/05/02 05:49:26;;;;;;;6.43;5.73;;;9.30;99.90;;;;;;4987549;28;20026;-82
2023/05/02 05:51:51;;;;;;;6.10;5.00;;;9.40;99.90;;;;;;4987091;28;20033;-83
2023/05/02 05:54:17;;;;;;;7.67;5.23;;;9.50;99.90;;;;;;4987520;28;20049;-82
2023/05/02 05:56:43;;;;;;;5.53;4.83;;;9.60;99.90;;;;;;4987245;28;20475;-83
2023/05/02 05:59:09;;;;;;;5.83;5.03;;;9.80;99.90;;;;;;4986800;28;20030;-82
2023/05/02 06:01:34;;;;;;;6.90;5.20;;;9.80;99.90;;;;;;4990378;28;20024;-82
2023/05/02 06:04:01;;;;;;;7.53;5.60;;;9.90;99.90;;;;;;4995028;28;20033;-82
2023/05/02 06:06:27;;;;;;;9.33;6.00;;;9.90;99.90;;;;;;4989285;28;20119;-83
2023/05/02 06:08:53;;;;;;;8.07;5.37;;;10.00;99.90;;;;;;4990380;28;20073;-79
2023/05/02 06:11:19;;;;;;;7.97;5.63;;;10.10;99.90;;;;;;4990107;28;20041;-79
2023/05/02 06:13:44;;;;;;;6.23;5.20;;;10.10;99.90;;;;;;4989938;28;20050;-79
2023/05/02 06:16:10;;;;;;;5.90;5.30;;;10.10;99.90;;;;;;4990900;28;20034;-80
2023/05/02 06:18:35;;;;;;;5.90;5.30;;;10.10;99.90;;;;;;4991452;28;20046;-80
2023/05/02 06:21:05;;;;;;;7.57;5.97;;;10.20;99.90;;;;;;4990427;28;20034;-80
2023/05/02 06:23:31;;;;;;;6.37;5.77;;;10.20;99.90;;;;;;4991404;28;20034;-79
2023/05/02 06:26:01;;;;;;;6.73;5.70;;;10.20;99.90;;;;;;4990546;28;20030;-80
2023/05/02 06:28:28;;;;;;;6.83;5.93;;;10.20;99.90;;;;;;4990911;28;20038;-80
2023/05/02 06:30:58;;;;;;;9.23;5.43;;;10.30;99.90;;;;;;4991529;28;20038;-80
2023/05/02 06:33:23;;;;;;;7.67;6.27;;;10.30;99.90;;;;;;4986989;28;20033;-79
2023/05/02 06:35:52;;;;;;;8.57;5.43;;;10.30;99.90;;;;;;4986317;28;20030;-79
2023/05/02 06:38:18;;;;;;;6.70;5.83;;;10.40;99.90;;;;;;4989168;28;20033;-80
2023/05/02 06:40:46;;;;;;;8.03;5.90;;;10.40;99.90;;;;;;4989613;28;20386;-80
2023/05/02 06:43:12;;;;;;;6.40;5.53;;;10.50;99.90;;;;;;4990262;28;20023;-79
2023/05/02 06:45:39;;;;;;;7.30;5.57;;;10.60;99.90;;;;;;4989140;28;20038;-80
2023/05/02 06:48:05;;;;;;;6.67;5.67;;;10.60;99.90;;;;;;4990205;28;20037;-80
2023/05/02 06:50:30;;;;;;;5.53;4.93;;;10.70;99.90;;;;;;4988818;28;20035;-80
2023/05/02 06:52:56;;;;;;;6.63;5.40;;;10.90;99.90;;;;;;4990387;28;20030;-79
2023/05/02 06:55:22;;;;;;;6.70;5.10;;;11.00;99.90;;;;;;4989594;28;20042;-79
2023/05/02 06:57:48;;;;;;;7.00;5.10;;;11.20;99.90;;;;;;4989644;28;20026;-79
2023/05/02 07:00:16;;;;;;;5.80;5.20;;;11.30;99.90;;;;;;4988123;28;20062;-80
2023/05/02 07:02:43;;;;;;;5.63;5.07;;;11.40;99.90;;;;;;4990730;28;20065;-80
2023/05/02 07:05:08;;;;;;;6.20;5.37;;;11.40;99.90;;;;;;4988427;28;21397;-79
2023/05/02 07:07:34;;;;;;;6.40;5.67;;;11.40;99.90;;;;;;4989661;28;20031;-79
2023/05/02 07:09:59;;;;;;;7.07;5.68;;;11.40;99.90;;;;;;4987075;28;20335;-80
2023/05/02 07:12:25;;;;;;;7.60;5.72;;;11.50;99.90;;;;;;4988668;28;20038;-80
2023/05/02 07:14:51;;;;;;;8.57;5.90;;;11.50;99.90;;;;;;4989299;28;20026;-80
2023/05/02 07:17:17;;;;;;;7.78;5.28;;;11.60;99.90;;;;;;4987324;28;21072;-80
2023/05/02 07:19:43;;;;;;;7.18;5.65;;;11.60;99.90;;;;;;4986614;28;20041;-80
2023/05/02 07:22:08;;;;;;;7.38;5.10;;;11.70;99.90;;;;;;4987281;28;20662;-80
2023/05/02 07:24:34;;;;;;;6.30;5.65;;;11.80;99.90;;;;;;4988610;28;20128;-80
2023/05/02 07:27:02;;;;;;;7.15;5.72;;;11.80;99.90;;;;;;4992203;28;20026;-80
2023/05/02 07:29:27;;;;;;;6.30;5.57;;;11.80;99.90;;;;;;4990199;28;20045;-80
2023/05/02 07:31:53;;;;;;;6.88;5.60;;;11.80;99.90;;;;;;4994040;28;20023;-81
2023/05/02 07:34:18;;;;;;;8.18;6.05;;;11.90;99.90;;;;;;4993113;28;20045;-80
2023/05/02 07:36:44;;;;;;;7.13;5.60;;;11.90;99.90;;;;;;5079028;23;21417;-83
2023/05/02 07:39:09;;;;;;;7.80;6.22;;;12.00;99.90;;;;;;4964552;28;20283;-83
2023/05/02 07:41:35;;;;;;;9.77;5.97;;;12.00;99.90;;;;;;4967686;28;20061;-85
2023/05/02 07:44:00;;;;;;;6.80;5.90;;;12.10;99.90;;;;;;4968052;28;20045;-85
2023/05/02 07:46:26;;;;;;;7.93;6.55;;;12.20;99.90;;;;;;4969260;28;20026;-84
2023/05/02 07:48:52;;;;;;;7.90;6.45;;;12.40;99.90;;;;;;4968996;28;20038;-85
2023/05/02 07:51:20;;;;;;;7.45;6.45;;;12.50;99.90;;;;;;4972884;28;20109;-87
2023/05/02 07:53:46;;;;;;;7.97;6.10;;;12.70;99.90;;;;;;4976025;28;20903;-85
2023/05/02 07:56:11;;;;;;;6.88;5.97;;;12.70;99.90;;;;;;4979178;28;20077;-85
2023/05/02 07:58:37;;;;;;;8.27;6.65;;;12.90;99.90;;;;;;4975492;28;20037;-86
2023/05/02 08:01:03;;;;;;;8.35;6.63;;;13.00;99.90;;;;;;4976246;28;20035;-85
2023/05/02 08:03:29;;;;;;;7.60;6.78;;;13.00;99.90;;;;;;4975928;28;20046;-86
2023/05/02 08:05:56;;;;;;;9.07;6.30;;;13.10;99.90;;;;;;4974059;28;20027;-86
2023/05/02 08:08:21;;;;;;;8.52;6.35;;;13.30;99.90;;;;;;4974848;28;20035;-86
2023/05/02 08:10:47;;;;;;;8.50;6.30;;;13.40;99.90;;;;;;4975715;28;20114;-85
2023/05/02 08:13:12;;;;;;;7.35;6.50;;;13.50;99.90;;;;;;4976304;28;20049;-85
2023/05/02 08:15:38;;;;;;;8.90;6.20;;;13.60;99.90;;;;;;4975247;28;20682;-85
2023/05/02 08:18:03;;;;;;;7.63;6.57;;;13.70;99.90;;;;;;4975098;28;20583;-87
2023/05/02 08:20:29;;;;;;;8.93;6.70;;;13.90;99.90;;;;;;4974573;28;20624;-87
2023/05/02 08:22:55;;;;;;;7.80;6.03;;;13.90;99.90;;;;;;4976421;28;20026;-86
2023/05/02 08:25:20;;;;;;;7.57;6.38;;;13.90;99.90;;;;;;4979185;28;20023;-86
2023/05/02 08:27:46;;;;;;;8.02;6.43;;;13.90;99.90;;;;;;4977835;28;20063;-85
2023/05/02 08:30:12;;;;;;;9.57;6.63;;;14.00;99.90;;;;;;4978853;28;20027;-86
2023/05/02 08:32:37;;;;;;;7.70;6.82;;;14.10;99.90;;;;;;4979747;28;20043;-85
2023/05/02 08:35:03;;;;;;;9.02;6.32;;;14.00;99.90;;;;;;4978547;28;20034;-86
2023/05/02 08:37:30;;;;;;;6.72;5.97;;;14.00;99.90;;;;;;4978124;28;20039;-86
2023/05/02 08:39:55;;;;;;;7.05;6.32;;;14.10;99.90;;;;;;4976936;28;20038;-86
2023/05/02 08:42:22;;;;;;;6.28;5.60;;;14.20;99.90;;;;;;4971840;28;20074;-86
2023/05/02 08:44:48;;;;;;;6.53;5.38;;;14.40;99.90;;;;;;4969498;28;20108;-86
2023/05/02 08:47:15;;;;;;;7.60;6.57;;;14.40;99.90;;;;;;4972800;28;20034;-84
2023/05/02 08:49:45;;;;;;;6.88;6.18;;;14.50;99.90;;;;;;4972106;28;20482;-84
2023/05/02 08:52:12;;;;;;;12.27;6.57;;;14.50;99.90;;;;;;4973914;28;20038;-83
2023/05/02 08:54:39;;;;;;;6.72;6.03;;;14.50;99.90;;;;;;4971941;28;20030;-83
2023/05/02 08:57:05;;;;;;;6.68;5.78;;;14.50;99.90;;;;;;4972008;28;20679;-84
2023/05/02 08:59:31;;;;;;;6.28;5.53;;;14.50;99.90;;;;;;4972750;28;20049;-83
2023/05/02 09:02:04;;;;;;;8.25;6.20;;;14.60;99.90;;;;;;4977028;28;20035;-84
2023/05/02 09:04:33;;;;;;;7.43;5.53;;;14.70;99.90;;;;;;4978475;28;20038;-84
2023/05/02 09:07:00;;;;;;;8.60;5.50;;;14.70;99.90;;;;;;4977329;28;20069;-83
2023/05/02 09:09:27;;;;;;;7.00;5.70;;;14.90;99.90;;;;;;4976733;28;20965;-84
2023/05/02 09:11:53;;;;;;;7.18;5.68;;;15.00;99.90;;;;;;4980020;28;20030;-84
2023/05/02 09:14:19;;;;;;;7.45;5.30;;;15.10;99.90;;;;;;4979561;28;20035;-86
2023/05/02 09:16:45;;;;;;;8.98;6.50;;;15.10;99.90;;;;;;4975954;28;20035;-86
2023/05/02 09:19:23;;;;;;;8.23;5.45;;;15.20;99.90;;;;;;4972611;28;20870;-84
2023/05/02 09:21:49;;;;;;;7.22;5.55;;;15.10;99.90;;;;;;4953894;28;20029;-86
2023/05/02 09:24:21;;;;;;;6.40;5.10;;;15.10;99.90;;;;;;4971314;28;20034;-87
2023/05/02 09:27:03;;;;;;;7.07;5.65;;;15.30;99.90;;;;;;4970680;28;20030;-87
2023/05/02 09:29:34;;;;;;;6.32;5.35;;;15.40;99.90;;;;;;4969723;28;20034;-87
2023/05/02 09:32:04;;;;;;;5.90;4.95;;;15.40;99.90;;;;;;4969460;28;20023;-86
2023/05/02 09:34:30;;;;;;;6.82;5.40;;;15.40;99.90;;;;;;4969410;28;20035;-86
2023/05/02 09:36:57;;;;;;;8.98;5.55;;;15.60;99.90;;;;;;4969024;28;20045;-86
2023/05/02 09:39:30;;;;;;;6.57;4.93;;;15.50;99.90;;;;;;4970579;28;20034;-86
2023/05/02 09:41:57;;;;;;;7.90;5.05;;;15.60;99.90;;;;;;4970229;28;20141;-84
2023/05/02 09:44:25;;;;;;;8.30;5.63;;;15.60;99.90;;;;;;4970333;28;20030;-84
2023/05/02 09:46:55;;;;;;;6.22;5.05;;;15.70;99.90;;;;;;4972333;28;20043;-85
2023/05/02 09:49:46;;;;;;;7.32;5.25;;;15.60;99.90;;;;;;4972825;28;20764;-84
2023/05/02 09:52:12;;;;;;;5.68;5.07;;;15.70;99.90;;;;;;4972894;28;20101;-84
2023/05/02 09:54:38;;;;;;;7.10;5.18;;;15.90;99.90;;;;;;4973303;28;20470;-85
2023/05/02 09:57:05;;;;;;;7.40;5.18;;;15.90;99.90;;;;;;4971962;28;20069;-84
2023/05/02 09:59:31;;;;;;;6.30;4.97;;;15.80;99.90;;;;;;4972602;28;20518;-85
2023/05/02 10:02:06;;;;;;;7.57;5.07;;;15.80;99.90;;;;;;4973218;28;20034;-79
2023/05/02 10:04:33;;;;;;;7.68;5.55;;;15.70;99.90;;;;;;4974460;28;20487;-84
2023/05/02 10:07:00;;;;;;;7.57;5.57;;;15.60;99.90;;;;;;4974899;28;20045;-84
2023/05/02 10:09:27;;;;;;;8.77;5.35;;;15.40;99.90;;;;;;4973639;28;20039;-84
2023/05/02 10:11:55;;;;;;;6.05;5.20;;;15.20;99.90;;;;;;4973695;28;20153;-84
2023/05/02 10:14:24;;;;;;;7.18;5.97;;;15.10;99.90;;;;;;4973757;28;20035;-84
2023/05/02 10:17:22;;;;;;;6.45;5.45;;;14.80;99.90;;;;;;4960485;28;20029;-84
2023/05/02 10:20:03;;;;;;;8.57;5.82;;;14.50;99.90;;;;;;4956020;28;20081;-84
2023/05/02 10:22:32;;;;;;;7.05;5.90;;;14.20;99.90;;;;;;4975217;28;20033;-84
2023/05/02 10:24:58;;;;;;;9.30;6.95;;;14.00;99.90;;;;;;4973460;28;20037;-84
2023/05/02 10:27:24;;;;;;;9.40;6.85;;;13.90;99.90;;;;;;4973183;28;20062;-85
2023/05/02 10:29:51;;;;;;;9.63;7.00;;;13.60;99.90;;;;;;4975730;28;20054;-85
2023/05/02 10:32:20;;;;;;;10.18;7.90;;;13.40;99.90;;;;;;4974332;28;20654;-84
2023/05/02 10:34:47;;;;;;;11.60;7.75;;;13.20;99.90;;;;;;4973837;28;20027;-84
2023/05/02 10:37:14;;;;;;;9.85;8.43;;;13.10;99.90;;;;;;4968975;28;20310;-85
2023/05/02 10:39:40;;;;;;;10.32;8.60;;;13.00;99.90;;;;;;4974750;28;20174;-85
2023/05/02 10:42:06;;;;;;;12.68;9.88;;;12.90;99.90;;;;;;4974578;28;20113;-84
2023/05/02 10:44:37;;;;;;;12.38;9.73;;;12.80;99.90;;;;;;4973186;28;20034;-84
2023/05/02 10:47:20;;;;;;;13.30;10.15;;;12.80;99.90;;;;;;4973536;28;20484;-84
2023/05/02 10:49:53;;;;;;;12.93;10.45;;;12.80;99.90;;;;;;4976175;28;20039;-84
2023/05/02 10:52:45;;;;;;;14.65;9.65;;;12.80;99.90;;;;;;4975962;28;20030;-84
2023/05/02 10:55:21;;;;;;;11.82;9.90;;;12.80;99.90;;;;;;4972797;28;20145;-85
2023/05/02 10:57:58;;;;;;;12.45;9.75;;;12.90;99.90;;;;;;4977131;28;20027;-84
2023/05/02 11:00:28;;;;;;;13.38;10.05;;;12.90;99.90;;;;;;4979021;28;20082;-85
2023/05/02 11:02:54;;;;;;;10.13;8.93;;;13.00;99.90;;;;;;4978961;28;20439;-84
2023/05/02 11:05:24;;;;;;;12.05;9.57;;;13.10;99.90;;;;;;4977564;28;20066;-85
2023/05/02 11:08:14;;;;;;;11.02;9.75;;;13.10;99.90;;;;;;4977822;28;20044;-85
2023/05/02 11:10:40;;;;;;;9.18;8.23;;;13.20;99.90;;;;;;4979730;28;20022;-84
2023/05/02 11:13:05;;;;;;;11.02;9.70;;;13.20;99.90;;;;;;4980762;28;20031;-84
2023/05/02 11:15:32;;;;;;;10.32;9.13;;;13.30;99.90;;;;;;4979572;28;20050;-84
2023/05/02 11:17:58;;;;;;;12.65;8.75;;;13.40;99.90;;;;;;4978725;28;20034;-84
2023/05/02 11:20:24;;;;;;;9.90;7.75;;;13.50;99.90;;;;;;4977642;28;20085;-84
2023/05/02 11:22:51;;;;;;;10.00;8.40;;;13.60;99.90;;;;;;4980759;28;20022;-84
2023/05/02 11:25:30;;;;;;;8.43;7.43;;;13.80;99.90;;;;;;4979492;28;20031;-84
2023/05/02 11:27:55;;;;;;;8.82;7.85;;;13.90;99.90;;;;;;4979183;28;20030;-84
2023/05/02 11:30:42;;;;;;;10.00;8.00;;;14.00;99.90;;;;;;4974757;28;20033;-84
2023/05/02 11:33:08;;;;;;;9.70;7.90;;;14.20;99.90;;;;;;4978293;28;20026;-84
2023/05/02 11:35:34;;;;;;;11.52;7.05;;;14.30;99.90;;;;;;4979379;28;20076;-84
2023/05/02 11:38:09;;;;;;;7.80;6.85;;;14.40;99.90;;;;;;4960715;28;20039;-84
2023/05/02 11:40:34;;;;;;;10.07;7.23;;;14.50;99.90;;;;;;4980069;28;20050;-83
2023/05/02 11:43:11;;;;;;;9.57;7.60;;;14.60;99.90;;;;;;4981297;28;20412;-83
2023/05/02 11:45:41;;;;;;;11.05;6.68;;;14.60;99.90;;;;;;4963961;28;20111;-83
2023/05/02 11:48:07;;;;;;;7.78;6.68;;;14.60;99.90;;;;;;4982002;28;20026;-83
2023/05/02 11:50:40;;;;;;;8.40;6.20;;;14.70;99.90;;;;;;4979779;28;20030;-83
2023/05/02 11:53:13;;;;;;;8.77;7.63;;;14.70;99.90;;;;;;4981339;28;20711;-83
2023/05/02 11:55:53;;;;;;;8.73;6.63;;;14.70;99.90;;;;;;4981163;28;20145;-82
2023/05/02 11:58:24;;;;;;;8.40;6.97;;;14.70;99.90;;;;;;4981677;28;20039;-83
2023/05/02 12:00:51;;;;;;;8.35;7.43;;;14.70;99.90;;;;;;4983603;28;20030;-83
2023/05/02 12:03:22;;;;;;;8.70;7.22;;;14.70;99.90;;;;;;4983908;28;20382;-83
2023/05/02 12:05:48;;;;;;;8.10;6.90;;;14.80;99.90;;;;;;4983923;28;20156;-84
2023/05/02 12:08:27;;;;;;;8.82;7.57;;;14.80;99.90;;;;;;4980452;28;20098;-83
2023/05/02 12:10:56;;;;;;;10.65;8.57;;;14.80;99.90;;;;;;4981424;28;20113;-83
2023/05/02 12:13:25;;;;;;;7.38;6.30;;;14.80;99.90;;;;;;4980832;28;20026;-83
2023/05/02 12:15:52;;;;;;;10.38;6.72;;;14.80;99.90;;;;;;4980722;28;21205;-83
2023/05/02 12:18:19;;;;;;;9.10;7.32;;;14.70;99.90;;;;;;4980926;28;20165;-83
2023/05/02 12:20:45;;;;;;;11.10;8.73;;;14.70;99.90;;;;;;4981322;28;20086;-83
2023/05/02 12:23:11;;;;;;;10.48;7.93;;;14.70;99.90;;;;;;4964812;28;20110;-83
2023/05/02 12:25:41;;;;;;;12.85;9.07;;;14.60;99.90;;;;;;4981748;28;20067;-83
2023/05/02 12:28:09;;;;;;;11.93;8.68;;;14.60;99.90;;;;;;4981862;28;20113;-83
2023/05/02 12:30:37;;;;;;;9.75;8.70;;;14.60;99.90;;;;;;4979311;28;20026;-83
2023/05/02 12:33:03;;;;;;;10.20;8.40;;;14.60;99.90;;;;;;4980296;28;20471;-83
2023/05/02 12:35:30;;;;;;;10.25;8.63;;;14.50;99.90;;;;;;4979517;28;20026;-83
2023/05/02 12:38:09;;;;;;;13.75;8.07;;;14.40;99.90;;;;;;4979742;28;20034;-83
2023/05/02 12:40:35;;;;;;;12.75;8.82;;;14.40;99.90;;;;;;4977792;28;21445;-85
2023/05/02 12:43:03;;;;;;;10.23;8.07;;;14.30;99.90;;;;;;4973739;28;20053;-85
2023/05/02 12:45:33;;;;;;;10.50;8.63;;;14.20;99.90;;;;;;4977228;28;20046;-85
2023/05/02 12:48:17;;;;;;;14.63;11.70;;;14.00;99.90;;;;;;4975015;28;20069;-85
2023/05/02 12:50:43;;;;;;;12.57;9.20;;;13.90;99.90;;;;;;4973670;28;20126;-85
2023/05/02 12:53:08;;;;;;;11.65;8.70;;;13.80;99.90;;;;;;4974474;28;20026;-85
2023/05/02 12:55:34;;;;;;;10.90;8.80;;;13.80;99.90;;;;;;4974536;28;20042;-85
2023/05/02 12:58:05;;;;;;;11.68;9.80;;;13.80;99.90;;;;;;4975063;28;20030;-86